sensor_id;sensor_type;location;lat;lon;timestamp;temperature;humidity
16970;DHT22;8601;48.718;8.992;2024-03-08T00:02:11;3.50;99.90
16970;DHT22;8601;48.718;8.992;2024-03-08T00:04:38;3.40;99.90
16970;DHT22;8601;48.718;8.992;2024-03-08T00:07:06;3.40;99.90
16970;DHT22;8601;48.718;8.992;2024-03-08T00:09:34;3.40;99.90
16970;DHT22;8601;48.718;8.992;2024-03-08T00:12:02;3.40;99.90
16970;DHT22;8601;48.718;8.992;2024-03-08T00:14:28;3.40;99.90
16970;DHT22;8601;48.718;8.992;2024-03-08T00:16:57;3.40;99.90
16970;DHT22;8601;48.718;8.992;2024-03-08T00:19:23;3.40;99.90
16970;DHT22;8601;48.718;8.992;2024-03-08T00:21:50;3.40;99.90
16970;DHT22;8601;48.718;8.992;2024-03-08T00:24:17;3.30;99.90
16970;DHT22;8601;48.718;8.992;2024-03-08T00:26:44;3.20;99.90
16970;DHT22;8601;48.718;8.992;2024-03-08T00:29:13;3.30;99.90
16970;DHT22;8601;48.718;8.992;2024-03-08T00:31:39;3.20;99.90
16970;DHT22;8601;48.718;8.992;2024-03-08T00:34:08;3.20;99.90
16970;DHT22;8601;48.718;8.992;2024-03-08T00:36:39;3.20;99.90
16970;DHT22;8601;48.718;8.992;2024-03-08T00:39:06;3.20;99.90
16970;DHT22;8601;48.718;8.992;2024-03-08T00:41:34;3.10;99.90
16970;DHT22;8601;48.718;8.992;2024-03-08T00:44:01;3.10;99.90
16970;DHT22;8601;48.718;8.992;2024-03-08T00:46:42;3.40;99.90
16970;DHT22;8601;48.718;8.992;2024-03-08T00:49:10;3.30;99.90
16970;DHT22;8601;48.718;8.992;2024-03-08T00:51:39;3.20;99.90
16970;DHT22;8601;48.718;8.992;2024-03-08T00:54:06;3.20;99.90
16970;DHT22;8601;48.718;8.992;2024-03-08T00:56:33;3.20;99.90
16970;DHT22;8601;48.718;8.992;2024-03-08T00:59:00;3.10;99.90
16970;DHT22;8601;48.718;8.992;2024-03-08T01:01:28;3.00;99.90
16970;DHT22;8601;48.718;8.992;2024-03-08T01:03:55;3.00;99.90
16970;DHT22;8601;48.718;8.992;2024-03-08T01:06:25;2.90;99.90
16970;DHT22;8601;48.718;8.992;2024-03-08T01:08:52;2.90;99.90
16970;DHT22;8601;48.718;8.992;2024-03-08T01:11:20;2.90;99.90
16970;DHT22;8601;48.718;8.992;2024-03-08T01:13:47;2.90;99.90
16970;DHT22;8601;48.718;8.992;2024-03-08T01:16:15;2.90;99.90
16970;DHT22;8601;48.718;8.992;2024-03-08T01:18:43;2.90;99.90
16970;DHT22;8601;48.718;8.992;2024-03-08T01:21:09;2.90;99.90
16970;DHT22;8601;48.718;8.992;2024-03-08T01:23:37;2.90;99.90
16970;DHT22;8601;48.718;8.992;2024-03-08T01:26:04;2.80;99.90
16970;DHT22;8601;48.718;8.992;2024-03-08T01:28:32;2.90;99.90
16970;DHT22;8601;48.718;8.992;2024-03-08T01:31:01;2.80;99.90
16970;DHT22;8601;48.718;8.992;2024-03-08T01:33:29;2.70;99.90
16970;DHT22;8601;48.718;8.992;2024-03-08T01:36:04;2.70;99.90
16970;DHT22;8601;48.718;8.992;2024-03-08T01:38:32;2.80;99.90
16970;DHT22;8601;48.718;8.992;2024-03-08T01:41:00;2.70;99.90
16970;DHT22;8601;48.718;8.992;2024-03-08T01:43:29;2.70;99.90
16970;DHT22;8601;48.718;8.992;2024-03-08T01:45:57;2.70;99.90
16970;DHT22;8601;48.718;8.992;2024-03-08T01:48:27;2.70;99.90
16970;DHT22;8601;48.718;8.992;2024-03-08T01:51:05;2.60;99.90
16970;DHT22;8601;48.718;8.992;2024-03-08T01:53:37;2.60;99.90
16970;DHT22;8601;48.718;8.992;2024-03-08T01:56:06;2.60;99.90
16970;DHT22;8601;48.718;8.992;2024-03-08T01:58:35;2.60;99.90
16970;DHT22;8601;48.718;8.992;2024-03-08T02:01:03;2.40;99.90
16970;DHT22;8601;48.718;8.992;2024-03-08T02:03:31;2.40;99.90
16970;DHT22;8601;48.718;8.992;2024-03-08T02:05:58;2.40;99.90
16970;DHT22;8601;48.718;8.992;2024-03-08T02:08:31;2.40;99.90
16970;DHT22;8601;48.718;8.992;2024-03-08T02:10:58;2.40;99.90
16970;DHT22;8601;48.718;8.992;2024-03-08T02:13:27;2.40;99.90
16970;DHT22;8601;48.718;8.992;2024-03-08T02:15:56;2.40;99.90
16970;DHT22;8601;48.718;8.992;2024-03-08T02:18:24;2.40;99.90
16970;DHT22;8601;48.718;8.992;2024-03-08T02:20:53;2.40;99.90
16970;DHT22;8601;48.718;8.992;2024-03-08T02:23:22;2.50;99.90
16970;DHT22;8601;48.718;8.992;2024-03-08T02:25:49;2.50;99.90
16970;DHT22;8601;48.718;8.992;2024-03-08T02:28:24;2.50;99.90
16970;DHT22;8601;48.718;8.992;2024-03-08T02:30:52;2.40;99.90
16970;DHT22;8601;48.718;8.992;2024-03-08T02:33:23;2.30;99.90
16970;DHT22;8601;48.718;8.992;2024-03-08T02:35:50;2.30;99.90
16970;DHT22;8601;48.718;8.992;2024-03-08T02:38:21;2.30;99.90
16970;DHT22;8601;48.718;8.992;2024-03-08T02:40:49;2.30;99.90
16970;DHT22;8601;48.718;8.992;2024-03-08T02:43:17;2.30;99.90
16970;DHT22;8601;48.718;8.992;2024-03-08T02:45:44;2.20;99.90
16970;DHT22;8601;48.718;8.992;2024-03-08T02:48:12;2.20;99.90
16970;DHT22;8601;48.718;8.992;2024-03-08T02:50:40;2.20;99.90
16970;DHT22;8601;48.718;8.992;2024-03-08T02:53:08;2.20;99.90
16970;DHT22;8601;48.718;8.992;2024-03-08T02:55:39;2.20;99.90
16970;DHT22;8601;48.718;8.992;2024-03-08T02:58:07;2.20;99.90
16970;DHT22;8601;48.718;8.992;2024-03-08T03:00:35;2.20;99.90
16970;DHT22;8601;48.718;8.992;2024-03-08T03:03:03;2.10;99.90
16970;DHT22;8601;48.718;8.992;2024-03-08T03:05:30;2.10;99.90
16970;DHT22;8601;48.718;8.992;2024-03-08T03:07:57;2.00;99.90
16970;DHT22;8601;48.718;8.992;2024-03-08T03:10:24;2.10;99.90
16970;DHT22;8601;48.718;8.992;2024-03-08T03:12:52;2.10;99.90
16970;DHT22;8601;48.718;8.992;2024-03-08T03:15:19;2.10;99.90
16970;DHT22;8601;48.718;8.992;2024-03-08T03:17:50;2.10;99.90
16970;DHT22;8601;48.718;8.992;2024-03-08T03:20:16;2.00;99.90
16970;DHT22;8601;48.718;8.992;2024-03-08T03:22:49;2.00;99.90
16970;DHT22;8601;48.718;8.992;2024-03-08T03:25:23;2.00;99.90
16970;DHT22;8601;48.718;8.992;2024-03-08T03:27:53;2.00;99.90
16970;DHT22;8601;48.718;8.992;2024-03-08T03:30:22;1.90;99.90
16970;DHT22;8601;48.718;8.992;2024-03-08T03:32:49;1.90;99.90
16970;DHT22;8601;48.718;8.992;2024-03-08T03:35:16;2.00;99.90
16970;DHT22;8601;48.718;8.992;2024-03-08T03:37:44;1.90;99.90
16970;DHT22;8601;48.718;8.992;2024-03-08T03:40:21;1.90;99.90
16970;DHT22;8601;48.718;8.992;2024-03-08T03:42:50;1.90;99.90
16970;DHT22;8601;48.718;8.992;2024-03-08T03:45:20;1.90;99.90
16970;DHT22;8601;48.718;8.992;2024-03-08T03:47:47;1.80;99.90
16970;DHT22;8601;48.718;8.992;2024-03-08T03:50:16;1.90;99.90
16970;DHT22;8601;48.718;8.992;2024-03-08T03:52:44;1.80;99.90
16970;DHT22;8601;48.718;8.992;2024-03-08T03:55:12;1.90;99.90
16970;DHT22;8601;48.718;8.992;2024-03-08T03:57:40;1.90;99.90
16970;DHT22;8601;48.718;8.992;2024-03-08T04:00:07;1.80;99.90
16970;DHT22;8601;48.718;8.992;2024-03-08T04:02:37;1.80;99.90
16970;DHT22;8601;48.718;8.992;2024-03-08T04:05:05;1.80;99.90
16970;DHT22;8601;48.718;8.992;2024-03-08T04:07:32;1.70;99.90
16970;DHT22;8601;48.718;8.992;2024-03-08T04:09:59;1.80;99.90
16970;DHT22;8601;48.718;8.992;2024-03-08T04:12:26;1.80;99.90
16970;DHT22;8601;48.718;8.992;2024-03-08T04:14:54;1.70;99.90
16970;DHT22;8601;48.718;8.992;2024-03-08T04:17:26;1.70;99.90
16970;DHT22;8601;48.718;8.992;2024-03-08T04:19:54;1.70;99.90
16970;DHT22;8601;48.718;8.992;2024-03-08T04:22:23;1.70;99.90
16970;DHT22;8601;48.718;8.992;2024-03-08T04:24:49;1.60;99.90
16970;DHT22;8601;48.718;8.992;2024-03-08T04:27:38;1.60;99.90
16970;DHT22;8601;48.718;8.992;2024-03-08T04:30:07;1.60;99.90
16970;DHT22;8601;48.718;8.992;2024-03-08T04:32:34;1.50;99.90
16970;DHT22;8601;48.718;8.992;2024-03-08T04:35:03;1.60;99.90
16970;DHT22;8601;48.718;8.992;2024-03-08T04:37:31;1.50;99.90
16970;DHT22;8601;48.718;8.992;2024-03-08T04:39:58;1.60;99.90
16970;DHT22;8601;48.718;8.992;2024-03-08T04:42:26;1.60;99.90
16970;DHT22;8601;48.718;8.992;2024-03-08T04:44:54;1.50;99.90
16970;DHT22;8601;48.718;8.992;2024-03-08T04:47:21;1.40;99.90
16970;DHT22;8601;48.718;8.992;2024-03-08T04:49:48;1.40;99.90
16970;DHT22;8601;48.718;8.992;2024-03-08T04:52:17;1.40;99.90
16970;DHT22;8601;48.718;8.992;2024-03-08T04:54:47;1.40;99.90
16970;DHT22;8601;48.718;8.992;2024-03-08T04:57:14;1.40;99.90
16970;DHT22;8601;48.718;8.992;2024-03-08T04:59:43;1.40;99.90
16970;DHT22;8601;48.718;8.992;2024-03-08T05:02:10;1.40;99.90
16970;DHT22;8601;48.718;8.992;2024-03-08T05:04:37;1.40;99.90
16970;DHT22;8601;48.718;8.992;2024-03-08T05:07:04;1.40;99.90
16970;DHT22;8601;48.718;8.992;2024-03-08T05:09:32;1.40;99.90
16970;DHT22;8601;48.718;8.992;2024-03-08T05:12:01;1.40;99.90
16970;DHT22;8601;48.718;8.992;2024-03-08T05:14:28;1.40;99.90
16970;DHT22;8601;48.718;8.992;2024-03-08T05:16:55;1.50;99.90
16970;DHT22;8601;48.718;8.992;2024-03-08T05:19:21;1.40;99.90
16970;DHT22;8601;48.718;8.992;2024-03-08T05:21:50;1.40;99.90
16970;DHT22;8601;48.718;8.992;2024-03-08T05:24:17;1.40;99.90
16970;DHT22;8601;48.718;8.992;2024-03-08T05:26:46;1.40;99.90
16970;DHT22;8601;48.718;8.992;2024-03-08T05:29:13;1.40;99.90
16970;DHT22;8601;48.718;8.992;2024-03-08T05:31:46;1.30;99.90
16970;DHT22;8601;48.718;8.992;2024-03-08T05:34:13;1.30;99.90
16970;DHT22;8601;48.718;8.992;2024-03-08T05:36:40;1.30;99.90
16970;DHT22;8601;48.718;8.992;2024-03-08T05:39:09;1.30;99.90
16970;DHT22;8601;48.718;8.992;2024-03-08T05:41:37;1.30;99.90
16970;DHT22;8601;48.718;8.992;2024-03-08T05:44:05;1.20;99.90
16970;DHT22;8601;48.718;8.992;2024-03-08T05:46:33;1.20;99.90
16970;DHT22;8601;48.718;8.992;2024-03-08T05:49:01;1.10;99.90
16970;DHT22;8601;48.718;8.992;2024-03-08T05:51:30;1.20;99.90
16970;DHT22;8601;48.718;8.992;2024-03-08T05:54:00;1.20;99.90
16970;DHT22;8601;48.718;8.992;2024-03-08T05:56:28;1.20;99.90
16970;DHT22;8601;48.718;8.992;2024-03-08T05:58:55;1.20;99.90
16970;DHT22;8601;48.718;8.992;2024-03-08T06:01:28;1.10;99.90
16970;DHT22;8601;48.718;8.992;2024-03-08T06:03:57;1.10;99.90
16970;DHT22;8601;48.718;8.992;2024-03-08T06:06:36;1.10;99.90
16970;DHT22;8601;48.718;8.992;2024-03-08T06:09:03;1.10;99.90
16970;DHT22;8601;48.718;8.992;2024-03-08T06:11:34;1.10;99.90
16970;DHT22;8601;48.718;8.992;2024-03-08T06:14:03;1.00;99.90
16970;DHT22;8601;48.718;8.992;2024-03-08T06:16:31;1.00;99.90
16970;DHT22;8601;48.718;8.992;2024-03-08T06:19:01;0.90;99.90
16970;DHT22;8601;48.718;8.992;2024-03-08T06:21:31;0.90;99.90
16970;DHT22;8601;48.718;8.992;2024-03-08T06:23:58;1.00;99.90
16970;DHT22;8601;48.718;8.992;2024-03-08T06:26:25;0.90;99.90
16970;DHT22;8601;48.718;8.992;2024-03-08T06:28:54;1.00;99.90
16970;DHT22;8601;48.718;8.992;2024-03-08T06:31:20;1.00;99.90
16970;DHT22;8601;48.718;8.992;2024-03-08T06:33:49;1.10;99.90
16970;DHT22;8601;48.718;8.992;2024-03-08T06:36:17;1.10;99.90
16970;DHT22;8601;48.718;8.992;2024-03-08T06:38:44;1.10;99.90
16970;DHT22;8601;48.718;8.992;2024-03-08T06:41:12;1.10;99.90
16970;DHT22;8601;48.718;8.992;2024-03-08T06:43:41;1.10;99.90
16970;DHT22;8601;48.718;8.992;2024-03-08T06:46:08;1.10;99.90
16970;DHT22;8601;48.718;8.992;2024-03-08T06:48:36;1.20;99.90
16970;DHT22;8601;48.718;8.992;2024-03-08T06:51:05;1.20;99.90
16970;DHT22;8601;48.718;8.992;2024-03-08T06:53:39;1.30;99.90
16970;DHT22;8601;48.718;8.992;2024-03-08T06:56:06;1.40;99.90
16970;DHT22;8601;48.718;8.992;2024-03-08T06:58:33;1.50;99.90
16970;DHT22;8601;48.718;8.992;2024-03-08T07:01:00;1.50;99.90
16970;DHT22;8601;48.718;8.992;2024-03-08T07:03:29;1.50;99.90
16970;DHT22;8601;48.718;8.992;2024-03-08T07:05:57;1.50;99.90
16970;DHT22;8601;48.718;8.992;2024-03-08T07:08:36;1.60;99.90
16970;DHT22;8601;48.718;8.992;2024-03-08T07:11:09;1.70;99.90
16970;DHT22;8601;48.718;8.992;2024-03-08T07:13:36;1.80;99.90
16970;DHT22;8601;48.718;8.992;2024-03-08T07:16:04;1.80;99.90
16970;DHT22;8601;48.718;8.992;2024-03-08T07:18:31;1.80;99.90
16970;DHT22;8601;48.718;8.992;2024-03-08T07:21:08;2.00;99.90
16970;DHT22;8601;48.718;8.992;2024-03-08T07:23:34;1.90;99.90
16970;DHT22;8601;48.718;8.992;2024-03-08T07:26:30;2.00;99.90
16970;DHT22;8601;48.718;8.992;2024-03-08T07:29:03;2.00;99.90
16970;DHT22;8601;48.718;8.992;2024-03-08T07:31:30;2.00;99.90
16970;DHT22;8601;48.718;8.992;2024-03-08T07:34:10;2.10;99.90
16970;DHT22;8601;48.718;8.992;2024-03-08T07:36:38;2.20;99.90
16970;DHT22;8601;48.718;8.992;2024-03-08T07:39:04;2.30;99.90
16970;DHT22;8601;48.718;8.992;2024-03-08T07:41:36;2.20;99.90
16970;DHT22;8601;48.718;8.992;2024-03-08T07:44:03;2.20;99.90
16970;DHT22;8601;48.718;8.992;2024-03-08T07:46:30;2.30;99.90
16970;DHT22;8601;48.718;8.992;2024-03-08T07:48:58;2.30;99.90
16970;DHT22;8601;48.718;8.992;2024-03-08T07:51:24;2.40;99.90
16970;DHT22;8601;48.718;8.992;2024-03-08T07:53:51;2.40;99.90
16970;DHT22;8601;48.718;8.992;2024-03-08T07:56:18;2.50;99.90
16970;DHT22;8601;48.718;8.992;2024-03-08T07:58:48;2.60;99.90
16970;DHT22;8601;48.718;8.992;2024-03-08T08:01:18;2.60;99.90
16970;DHT22;8601;48.718;8.992;2024-03-08T08:03:47;2.60;99.90
16970;DHT22;8601;48.718;8.992;2024-03-08T08:06:15;2.70;99.90
16970;DHT22;8601;48.718;8.992;2024-03-08T08:08:43;2.80;99.90
16970;DHT22;8601;48.718;8.992;2024-03-08T08:11:18;2.80;99.90
16970;DHT22;8601;48.718;8.992;2024-03-08T08:13:54;2.90;99.90
16970;DHT22;8601;48.718;8.992;2024-03-08T08:16:23;2.70;99.90
16970;DHT22;8601;48.718;8.992;2024-03-08T08:18:53;2.80;99.90
16970;DHT22;8601;48.718;8.992;2024-03-08T08:21:21;2.80;99.90
16970;DHT22;8601;48.718;8.992;2024-03-08T08:23:49;2.90;99.90
16970;DHT22;8601;48.718;8.992;2024-03-08T08:26:16;2.80;99.90
16970;DHT22;8601;48.718;8.992;2024-03-08T08:28:44;2.90;99.90
16970;DHT22;8601;48.718;8.992;2024-03-08T08:31:13;2.90;99.90
16970;DHT22;8601;48.718;8.992;2024-03-08T08:33:48;3.00;99.90
16970;DHT22;8601;48.718;8.992;2024-03-08T08:36:15;2.90;99.90
16970;DHT22;8601;48.718;8.992;2024-03-08T08:38:43;2.90;99.90
16970;DHT22;8601;48.718;8.992;2024-03-08T08:41:11;3.00;99.90
16970;DHT22;8601;48.718;8.992;2024-03-08T08:43:40;3.00;99.90
16970;DHT22;8601;48.718;8.992;2024-03-08T08:46:09;3.10;99.90
16970;DHT22;8601;48.718;8.992;2024-03-08T08:48:41;3.10;99.90
16970;DHT22;8601;48.718;8.992;2024-03-08T08:51:09;3.20;99.90
16970;DHT22;8601;48.718;8.992;2024-03-08T08:53:42;3.20;99.90
16970;DHT22;8601;48.718;8.992;2024-03-08T08:56:12;3.20;99.90
16970;DHT22;8601;48.718;8.992;2024-03-08T08:58:41;3.20;99.90
16970;DHT22;8601;48.718;8.992;2024-03-08T09:01:08;3.20;99.90
16970;DHT22;8601;48.718;8.992;2024-03-08T09:03:36;3.30;99.90
16970;DHT22;8601;48.718;8.992;2024-03-08T09:06:07;3.30;99.90
16970;DHT22;8601;48.718;8.992;2024-03-08T09:08:37;3.30;99.90
16970;DHT22;8601;48.718;8.992;2024-03-08T09:11:04;3.10;99.90
16970;DHT22;8601;48.718;8.992;2024-03-08T09:13:37;3.20;99.90
16970;DHT22;8601;48.718;8.992;2024-03-08T09:16:04;3.30;99.90
16970;DHT22;8601;48.718;8.992;2024-03-08T09:18:34;3.40;99.90
16970;DHT22;8601;48.718;8.992;2024-03-08T09:21:08;3.50;99.90
16970;DHT22;8601;48.718;8.992;2024-03-08T09:23:41;3.50;99.90
16970;DHT22;8601;48.718;8.992;2024-03-08T09:26:12;3.50;99.90
16970;DHT22;8601;48.718;8.992;2024-03-08T09:28:40;3.50;99.90
16970;DHT22;8601;48.718;8.992;2024-03-08T09:31:07;3.40;99.90
16970;DHT22;8601;48.718;8.992;2024-03-08T09:33:36;3.50;99.90
16970;DHT22;8601;48.718;8.992;2024-03-08T09:36:13;3.50;99.90
16970;DHT22;8601;48.718;8.992;2024-03-08T09:38:40;3.50;99.90
16970;DHT22;8601;48.718;8.992;2024-03-08T09:41:07;3.60;99.90
16970;DHT22;8601;48.718;8.992;2024-03-08T09:43:35;3.70;99.90
16970;DHT22;8601;48.718;8.992;2024-03-08T09:46:02;3.70;99.90
16970;DHT22;8601;48.718;8.992;2024-03-08T09:48:31;3.70;99.90
16970;DHT22;8601;48.718;8.992;2024-03-08T09:50:58;3.70;99.90
16970;DHT22;8601;48.718;8.992;2024-03-08T09:53:26;3.70;99.90
16970;DHT22;8601;48.718;8.992;2024-03-08T09:55:54;3.70;99.90
16970;DHT22;8601;48.718;8.992;2024-03-08T09:58:21;3.70;99.90
16970;DHT22;8601;48.718;8.992;2024-03-08T10:01:17;3.70;99.90
16970;DHT22;8601;48.718;8.992;2024-03-08T10:03:47;3.80;99.90
16970;DHT22;8601;48.718;8.992;2024-03-08T10:06:14;3.80;99.90
16970;DHT22;8601;48.718;8.992;2024-03-08T10:08:42;3.80;99.90
16970;DHT22;8601;48.718;8.992;2024-03-08T10:11:09;3.90;99.90
16970;DHT22;8601;48.718;8.992;2024-03-08T10:13:37;4.00;99.90
16970;DHT22;8601;48.718;8.992;2024-03-08T10:16:06;4.00;99.90
16970;DHT22;8601;48.718;8.992;2024-03-08T10:18:33;4.10;99.90
16970;DHT22;8601;48.718;8.992;2024-03-08T10:21:03;4.10;99.90
16970;DHT22;8601;48.718;8.992;2024-03-08T10:23:34;4.20;99.90
16970;DHT22;8601;48.718;8.992;2024-03-08T10:26:12;4.20;99.90
16970;DHT22;8601;48.718;8.992;2024-03-08T10:28:41;4.20;99.90
16970;DHT22;8601;48.718;8.992;2024-03-08T10:31:08;4.20;99.90
16970;DHT22;8601;48.718;8.992;2024-03-08T10:33:36;4.40;99.90
16970;DHT22;8601;48.718;8.992;2024-03-08T10:36:04;4.40;99.90
16970;DHT22;8601;48.718;8.992;2024-03-08T10:38:32;4.40;99.90
16970;DHT22;8601;48.718;8.992;2024-03-08T10:41:00;4.50;99.90
16970;DHT22;8601;48.718;8.992;2024-03-08T10:43:32;4.50;99.90
16970;DHT22;8601;48.718;8.992;2024-03-08T10:46:11;4.60;99.90
16970;DHT22;8601;48.718;8.992;2024-03-08T10:48:44;4.50;99.90
16970;DHT22;8601;48.718;8.992;2024-03-08T10:51:12;4.50;99.90
16970;DHT22;8601;48.718;8.992;2024-03-08T10:53:39;4.50;99.90
16970;DHT22;8601;48.718;8.992;2024-03-08T10:56:07;4.50;99.90
16970;DHT22;8601;48.718;8.992;2024-03-08T10:58:36;4.70;99.90
16970;DHT22;8601;48.718;8.992;2024-03-08T11:01:04;4.70;99.90
16970;DHT22;8601;48.718;8.992;2024-03-08T11:03:44;4.80;99.90
16970;DHT22;8601;48.718;8.992;2024-03-08T11:06:15;6.20;99.90
16970;DHT22;8601;48.718;8.992;2024-03-08T11:08:42;6.70;99.90
16970;DHT22;8601;48.718;8.992;2024-03-08T11:11:24;6.20;99.90
16970;DHT22;8601;48.718;8.992;2024-03-08T11:13:55;6.00;99.90
16970;DHT22;8601;48.718;8.992;2024-03-08T11:16:38;5.80;99.90
16970;DHT22;8601;48.718;8.992;2024-03-08T11:19:27;5.80;99.90
16970;DHT22;8601;48.718;8.992;2024-03-08T11:22:01;5.60;99.90
16970;DHT22;8601;48.718;8.992;2024-03-08T11:24:37;5.50;99.90
16970;DHT22;8601;48.718;8.992;2024-03-08T11:27:05;5.60;99.90
16970;DHT22;8601;48.718;8.992;2024-03-08T11:29:37;5.70;99.90
16970;DHT22;8601;48.718;8.992;2024-03-08T11:32:08;5.90;99.90
16970;DHT22;8601;48.718;8.992;2024-03-08T11:34:36;6.00;99.90
16970;DHT22;8601;48.718;8.992;2024-03-08T11:37:11;6.20;99.90
16970;DHT22;8601;48.718;8.992;2024-03-08T11:39:39;6.20;99.90
16970;DHT22;8601;48.718;8.992;2024-03-08T11:42:06;6.40;99.90
16970;DHT22;8601;48.718;8.992;2024-03-08T11:44:33;6.60;99.90
16970;DHT22;8601;48.718;8.992;2024-03-08T11:47:05;6.70;99.90
16970;DHT22;8601;48.718;8.992;2024-03-08T11:49:34;6.60;99.90
16970;DHT22;8601;48.718;8.992;2024-03-08T11:52:01;6.60;99.90
16970;DHT22;8601;48.718;8.992;2024-03-08T11:54:29;6.50;99.90
16970;DHT22;8601;48.718;8.992;2024-03-08T11:56:56;6.30;99.90
16970;DHT22;8601;48.718;8.992;2024-03-08T11:59:26;6.40;99.90
16970;DHT22;8601;48.718;8.992;2024-03-08T12:02:01;6.30;99.90
16970;DHT22;8601;48.718;8.992;2024-03-08T12:04:30;6.60;99.90
16970;DHT22;8601;48.718;8.992;2024-03-08T12:07:00;6.70;99.90
16970;DHT22;8601;48.718;8.992;2024-03-08T12:09:34;6.90;99.90
16970;DHT22;8601;48.718;8.992;2024-03-08T12:12:01;6.80;99.90
16970;DHT22;8601;48.718;8.992;2024-03-08T12:14:29;6.90;99.90
16970;DHT22;8601;48.718;8.992;2024-03-08T12:16:57;7.00;99.90
16970;DHT22;8601;48.718;8.992;2024-03-08T12:19:26;7.10;99.90
16970;DHT22;8601;48.718;8.992;2024-03-08T12:21:55;7.10;99.90
16970;DHT22;8601;48.718;8.992;2024-03-08T12:24:22;7.40;99.90
16970;DHT22;8601;48.718;8.992;2024-03-08T12:26:49;7.70;99.90
16970;DHT22;8601;48.718;8.992;2024-03-08T12:29:17;7.90;99.90
16970;DHT22;8601;48.718;8.992;2024-03-08T12:31:46;8.00;99.90
16970;DHT22;8601;48.718;8.992;2024-03-08T12:34:13;8.10;99.90
16970;DHT22;8601;48.718;8.992;2024-03-08T12:36:45;8.20;99.90
16970;DHT22;8601;48.718;8.992;2024-03-08T12:39:16;8.50;99.90
16970;DHT22;8601;48.718;8.992;2024-03-08T12:41:47;8.40;99.90
16970;DHT22;8601;48.718;8.992;2024-03-08T12:44:14;8.40;99.90
16970;DHT22;8601;48.718;8.992;2024-03-08T12:46:44;8.20;99.90
16970;DHT22;8601;48.718;8.992;2024-03-08T12:49:11;8.30;99.90
16970;DHT22;8601;48.718;8.992;2024-03-08T12:51:38;8.40;99.90
16970;DHT22;8601;48.718;8.992;2024-03-08T12:54:07;9.60;99.90
16970;DHT22;8601;48.718;8.992;2024-03-08T12:56:35;9.80;99.90
16970;DHT22;8601;48.718;8.992;2024-03-08T12:59:03;9.70;99.80
16970;DHT22;8601;48.718;8.992;2024-03-08T13:01:31;9.50;99.70
16970;DHT22;8601;48.718;8.992;2024-03-08T13:03:58;9.20;99.60
16970;DHT22;8601;48.718;8.992;2024-03-08T13:06:26;9.00;99.90
16970;DHT22;8601;48.718;8.992;2024-03-08T13:08:54;8.90;99.90
16970;DHT22;8601;48.718;8.992;2024-03-08T13:11:22;9.00;99.90
16970;DHT22;8601;48.718;8.992;2024-03-08T13:13:51;8.80;99.90
16970;DHT22;8601;48.718;8.992;2024-03-08T13:16:19;8.90;99.30
16970;DHT22;8601;48.718;8.992;2024-03-08T13:18:46;8.80;98.70
16970;DHT22;8601;48.718;8.992;2024-03-08T13:21:15;8.70;99.10
16970;DHT22;8601;48.718;8.992;2024-03-08T13:23:45;8.90;98.90
16970;DHT22;8601;48.718;8.992;2024-03-08T13:26:15;8.70;99.40
16970;DHT22;8601;48.718;8.992;2024-03-08T13:28:42;8.80;99.70
16970;DHT22;8601;48.718;8.992;2024-03-08T13:31:10;8.90;99.00
16970;DHT22;8601;48.718;8.992;2024-03-08T13:33:37;9.10;99.90
16970;DHT22;8601;48.718;8.992;2024-03-08T13:36:05;9.10;99.00
16970;DHT22;8601;48.718;8.992;2024-03-08T13:38:40;8.90;98.10
16970;DHT22;8601;48.718;8.992;2024-03-08T13:41:08;8.90;99.10
16970;DHT22;8601;48.718;8.992;2024-03-08T13:43:35;9.10;98.10
16970;DHT22;8601;48.718;8.992;2024-03-08T13:46:02;9.00;97.80
16970;DHT22;8601;48.718;8.992;2024-03-08T13:48:32;8.90;98.80
16970;DHT22;8601;48.718;8.992;2024-03-08T13:50:59;9.00;98.30
16970;DHT22;8601;48.718;8.992;2024-03-08T13:53:26;9.20;98.10
16970;DHT22;8601;48.718;8.992;2024-03-08T13:55:53;9.30;98.00
16970;DHT22;8601;48.718;8.992;2024-03-08T13:58:20;9.40;97.70
16970;DHT22;8601;48.718;8.992;2024-03-08T14:00:46;9.50;97.80
16970;DHT22;8601;48.718;8.992;2024-03-08T14:03:14;9.50;97.20
16970;DHT22;8601;48.718;8.992;2024-03-08T14:05:42;9.60;96.90
16970;DHT22;8601;48.718;8.992;2024-03-08T14:08:10;9.70;96.90
16970;DHT22;8601;48.718;8.992;2024-03-08T14:10:37;9.60;96.70
16970;DHT22;8601;48.718;8.992;2024-03-08T14:13:05;9.60;95.70
16970;DHT22;8601;48.718;8.992;2024-03-08T14:15:32;9.60;96.10
16970;DHT22;8601;48.718;8.992;2024-03-08T14:18:00;9.60;95.70
16970;DHT22;8601;48.718;8.992;2024-03-08T14:20:27;9.60;96.40
16970;DHT22;8601;48.718;8.992;2024-03-08T14:22:55;9.60;96.00
16970;DHT22;8601;48.718;8.992;2024-03-08T14:25:22;9.70;96.80
16970;DHT22;8601;48.718;8.992;2024-03-08T14:27:53;9.70;95.70
16970;DHT22;8601;48.718;8.992;2024-03-08T14:30:23;9.50;96.50
16970;DHT22;8601;48.718;8.992;2024-03-08T14:33:00;9.30;95.30
16970;DHT22;8601;48.718;8.992;2024-03-08T14:35:27;9.40;96.70
16970;DHT22;8601;48.718;8.992;2024-03-08T14:37:56;9.60;96.50
16970;DHT22;8601;48.718;8.992;2024-03-08T14:40:23;9.60;96.20
16970;DHT22;8601;48.718;8.992;2024-03-08T14:42:51;9.70;95.60
16970;DHT22;8601;48.718;8.992;2024-03-08T14:45:18;9.80;95.40
16970;DHT22;8601;48.718;8.992;2024-03-08T14:47:45;9.70;95.30
16970;DHT22;8601;48.718;8.992;2024-03-08T14:50:15;9.70;95.30
16970;DHT22;8601;48.718;8.992;2024-03-08T14:52:42;9.60;94.70
16970;DHT22;8601;48.718;8.992;2024-03-08T14:55:10;9.70;95.50
16970;DHT22;8601;48.718;8.992;2024-03-08T14:57:40;9.60;94.90
16970;DHT22;8601;48.718;8.992;2024-03-08T15:00:08;9.60;95.50
16970;DHT22;8601;48.718;8.992;2024-03-08T15:02:42;9.60;95.60
16970;DHT22;8601;48.718;8.992;2024-03-08T15:05:09;9.80;96.00
16970;DHT22;8601;48.718;8.992;2024-03-08T15:07:37;9.80;94.80
16970;DHT22;8601;48.718;8.992;2024-03-08T15:10:06;9.80;94.60
16970;DHT22;8601;48.718;8.992;2024-03-08T15:12:37;9.80;94.60
16970;DHT22;8601;48.718;8.992;2024-03-08T15:15:07;9.60;94.60
16970;DHT22;8601;48.718;8.992;2024-03-08T15:17:35;9.70;94.70
16970;DHT22;8601;48.718;8.992;2024-03-08T15:20:03;9.60;93.80
16970;DHT22;8601;48.718;8.992;2024-03-08T15:22:30;9.60;94.40
16970;DHT22;8601;48.718;8.992;2024-03-08T15:24:57;9.50;93.70
16970;DHT22;8601;48.718;8.992;2024-03-08T15:27:24;9.40;94.10
16970;DHT22;8601;48.718;8.992;2024-03-08T15:29:52;9.40;93.70
16970;DHT22;8601;48.718;8.992;2024-03-08T15:32:21;9.40;93.90
16970;DHT22;8601;48.718;8.992;2024-03-08T15:38:03;9.20;93.20
16970;DHT22;8601;48.718;8.992;2024-03-08T15:40:30;10.10;99.90
16970;DHT22;8601;48.718;8.992;2024-03-08T15:43:00;9.80;93.70
16970;DHT22;8601;48.718;8.992;2024-03-08T15:45:28;9.60;93.70
16970;DHT22;8601;48.718;8.992;2024-03-08T15:47:55;9.50;94.10
16970;DHT22;8601;48.718;8.992;2024-03-08T15:50:22;9.40;93.90
16970;DHT22;8601;48.718;8.992;2024-03-08T15:52:49;9.30;94.00
16970;DHT22;8601;48.718;8.992;2024-03-08T15:55:18;9.10;94.00
16970;DHT22;8601;48.718;8.992;2024-03-08T15:57:48;9.00;94.30
16970;DHT22;8601;48.718;8.992;2024-03-08T16:00:17;9.00;94.40
16970;DHT22;8601;48.718;8.992;2024-03-08T16:03:00;9.00;94.00
16970;DHT22;8601;48.718;8.992;2024-03-08T16:05:28;8.90;95.10
16970;DHT22;8601;48.718;8.992;2024-03-08T16:07:55;9.00;95.60
16970;DHT22;8601;48.718;8.992;2024-03-08T16:10:22;8.90;96.00
16970;DHT22;8601;48.718;8.992;2024-03-08T16:12:51;8.90;95.90
16970;DHT22;8601;48.718;8.992;2024-03-08T16:15:19;8.90;96.00
16970;DHT22;8601;48.718;8.992;2024-03-08T16:17:47;8.90;96.10